Time;durP1;ratioP1;P1;durP2;ratioP2;P2;SDS_P1;SDS_P2;PMS_P1;PMS_P2;Temp;Humidity;BMP_temperature;BMP_pressure;BME280_temperature;BME280_humidity;BME280_pressure;Samples;Min_cycle;Max_cycle;Signal;HPM_P1;HPM_P2
2021/07/04 00:01:02;;;;;;;8.70;4.85;;;20.00;95.60;;;;;;4996535;28;20046;-84
2021/07/04 00:03:28;;;;;;;11.23;5.15;;;20.00;95.70;;;;;;5014394;28;20238;-84
2021/07/04 00:05:53;;;;;;;10.50;5.28;;;20.00;95.70;;;;;;4996556;28;20057;-84
2021/07/04 00:08:22;;;;;;;9.45;4.93;;;20.10;95.70;;;;;;4996110;28;20057;-84
2021/07/04 00:10:55;;;;;;;9.55;4.68;;;20.10;95.70;;;;;;4996632;28;20117;-85
2021/07/04 00:13:22;;;;;;;9.80;5.22;;;20.10;95.70;;;;;;4995694;28;20420;-85
2021/07/04 00:15:48;;;;;;;10.38;4.97;;;20.00;95.80;;;;;;5013953;28;20370;-84
2021/07/04 00:18:17;;;;;;;9.38;4.65;;;20.00;95.70;;;;;;5014100;28;20018;-84
2021/07/04 00:20:44;;;;;;;11.52;5.20;;;19.90;95.70;;;;;;5013462;28;20037;-84
2021/07/04 00:23:10;;;;;;;9.30;4.80;;;20.00;95.80;;;;;;5013724;28;20053;-84
2021/07/04 00:25:36;;;;;;;10.02;4.80;;;20.10;95.80;;;;;;4996571;28;20412;-84
2021/07/04 00:28:05;;;;;;;9.15;4.70;;;20.00;95.70;;;;;;4979786;28;20122;-84
2021/07/04 00:30:31;;;;;;;9.18;4.55;;;20.00;95.70;;;;;;4993875;28;20018;-84
2021/07/04 00:32:57;;;;;;;9.75;4.32;;;20.00;95.80;;;;;;4976682;28;20037;-84
2021/07/04 00:35:25;;;;;;;8.43;4.50;;;20.10;95.90;;;;;;4968761;28;20031;-84
2021/07/04 00:37:52;;;;;;;8.40;4.43;;;20.10;95.90;;;;;;4974333;28;20474;-84
2021/07/04 00:40:18;;;;;;;8.23;4.03;;;20.00;95.90;;;;;;4974556;28;20034;-84
2021/07/04 00:42:44;;;;;;;9.77;4.60;;;20.10;95.90;;;;;;4974455;28;20035;-84
2021/07/04 00:45:30;;;;;;;8.63;4.10;;;20.00;95.90;;;;;;4974532;28;20038;-84
2021/07/04 00:47:56;;;;;;;9.57;4.70;;;20.10;95.90;;;;;;4974246;28;20034;-84
2021/07/04 00:50:24;;;;;;;8.57;4.55;;;20.10;96.00;;;;;;4973222;28;20019;-84
2021/07/04 00:52:53;;;;;;;8.05;3.97;;;20.10;96.00;;;;;;4957215;28;20038;-84
2021/07/04 00:55:19;;;;;;;9.70;4.30;;;20.20;95.90;;;;;;4974279;28;20045;-84
2021/07/04 00:57:46;;;;;;;9.25;4.50;;;20.10;95.90;;;;;;4974505;28;20467;-84
2021/07/04 01:00:14;;;;;;;8.57;4.40;;;20.20;95.90;;;;;;4974608;28;20045;-83
2021/07/04 01:02:40;;;;;;;8.55;4.22;;;20.10;95.90;;;;;;4974351;28;20110;-84
2021/07/04 01:05:33;;;;;;;7.80;3.70;;;20.20;95.90;;;;;;4974430;28;20054;-84
2021/07/04 01:08:01;;;;;;;8.13;4.20;;;20.20;95.90;;;;;;4971288;28;20514;-83
2021/07/04 01:10:29;;;;;;;8.65;4.22;;;20.10;95.90;;;;;;4956916;28;20058;-84
2021/07/04 01:12:56;;;;;;;9.30;4.45;;;20.20;95.90;;;;;;4974287;28;20071;-84
2021/07/04 01:15:25;;;;;;;7.47;3.78;;;20.20;95.90;;;;;;4974226;28;20058;-84
2021/07/04 01:17:53;;;;;;;9.07;4.15;;;20.20;95.90;;;;;;4972970;28;20023;-84
2021/07/04 01:20:21;;;;;;;9.18;4.38;;;20.10;95.90;;;;;;4972857;28;20038;-83
2021/07/04 01:23:06;;;;;;;7.05;3.55;;;20.10;95.90;;;;;;4956978;28;20027;-84
2021/07/04 01:25:35;;;;;;;9.25;4.88;;;20.10;95.90;;;;;;4977805;28;20014;-84
2021/07/04 01:28:02;;;;;;;8.43;4.05;;;20.10;95.80;;;;;;5010029;28;20049;-84
2021/07/04 01:30:28;;;;;;;8.13;3.90;;;20.00;95.90;;;;;;4999906;28;20381;-83
2021/07/04 01:32:54;;;;;;;9.10;4.50;;;20.00;95.80;;;;;;5016733;28;20409;-83
2021/07/04 01:35:21;;;;;;;8.75;3.83;;;20.00;95.80;;;;;;4974792;28;20029;-83
2021/07/04 01:37:47;;;;;;;10.38;5.40;;;20.00;95.80;;;;;;4996343;28;20031;-83
2021/07/04 01:40:13;;;;;;;8.00;4.00;;;20.00;95.90;;;;;;4996944;28;20482;-82
2021/07/04 01:42:42;;;;;;;8.40;4.22;;;20.00;95.90;;;;;;4997003;28;20486;-82
2021/07/04 01:45:13;;;;;;;9.32;3.95;;;20.00;95.80;;;;;;4995688;28;20034;-82
2021/07/04 01:47:40;;;;;;;7.45;3.65;;;20.00;95.90;;;;;;4995722;28;20026;-82
2021/07/04 01:50:09;;;;;;;8.05;4.10;;;19.90;95.90;;;;;;4995544;28;20030;-82
2021/07/04 01:52:35;;;;;;;8.75;4.30;;;19.90;95.80;;;;;;4996911;28;20033;-83
2021/07/04 01:55:04;;;;;;;9.20;3.83;;;19.90;95.80;;;;;;4996686;28;20478;-83
2021/07/04 01:57:32;;;;;;;10.77;4.78;;;19.90;95.80;;;;;;4996828;28;20061;-83
2021/07/04 02:00:03;;;;;;;9.38;4.32;;;19.80;95.70;;;;;;4995031;28;20485;-83
2021/07/04 02:02:29;;;;;;;9.27;4.50;;;19.70;95.70;;;;;;4995436;28;20030;-83
2021/07/04 02:04:55;;;;;;;8.95;4.45;;;19.70;95.70;;;;;;4979468;28;20030;-84
2021/07/04 02:07:20;;;;;;;7.93;4.05;;;19.70;95.80;;;;;;4996583;28;20057;-83
2021/07/04 02:09:48;;;;;;;8.77;4.30;;;19.60;95.80;;;;;;4979000;28;20030;-82
2021/07/04 02:12:15;;;;;;;9.30;3.85;;;19.60;95.80;;;;;;4996562;28;20034;-82
2021/07/04 02:14:42;;;;;;;8.88;4.57;;;19.70;95.90;;;;;;4995234;28;20018;-83
2021/07/04 02:17:08;;;;;;;8.00;4.20;;;19.60;95.80;;;;;;4979474;28;20031;-83
2021/07/04 02:19:35;;;;;;;8.38;4.32;;;19.60;95.90;;;;;;4996317;28;20030;-82
2021/07/04 02:22:02;;;;;;;8.57;4.10;;;19.70;95.90;;;;;;4994976;28;20038;-83
2021/07/04 02:24:29;;;;;;;9.20;4.20;;;19.70;96.00;;;;;;4996039;28;20106;-82
2021/07/04 02:26:55;;;;;;;8.32;4.07;;;19.70;95.90;;;;;;5003295;28;20042;-82
2021/07/04 02:29:20;;;;;;;10.68;4.40;;;19.60;95.90;;;;;;4981991;28;20104;-82
2021/07/04 02:31:46;;;;;;;8.65;4.43;;;19.60;95.90;;;;;;5015724;28;20498;-82
2021/07/04 02:34:12;;;;;;;7.72;3.92;;;19.60;95.90;;;;;;5014014;28;20065;-82
2021/07/04 02:36:38;;;;;;;8.65;4.25;;;19.60;95.90;;;;;;4990987;28;20030;-84
2021/07/04 02:39:04;;;;;;;9.20;4.60;;;19.60;95.90;;;;;;4962671;28;20030;-84
2021/07/04 02:41:31;;;;;;;9.10;4.80;;;19.60;95.90;;;;;;4994552;28;20035;-84
2021/07/04 02:43:57;;;;;;;8.50;4.30;;;19.60;95.90;;;;;;4994430;28;20085;-83
2021/07/04 02:46:22;;;;;;;8.00;4.30;;;19.60;96.00;;;;;;4994479;28;20030;-83
2021/07/04 02:48:48;;;;;;;9.35;4.50;;;19.60;96.00;;;;;;4995996;28;20034;-83
2021/07/04 02:51:13;;;;;;;9.70;4.50;;;19.70;96.10;;;;;;4978328;28;20031;-83
2021/07/04 02:53:39;;;;;;;8.57;4.38;;;19.60;95.90;;;;;;4995465;28;20026;-83
2021/07/04 02:56:05;;;;;;;9.20;4.65;;;19.60;95.90;;;;;;4994552;28;20165;-83
2021/07/04 02:58:30;;;;;;;9.65;4.45;;;19.50;95.90;;;;;;4995472;28;20033;-83
2021/07/04 03:00:58;;;;;;;8.20;4.60;;;19.60;96.00;;;;;;4995241;28;20038;-83
2021/07/04 03:03:24;;;;;;;8.98;4.68;;;19.60;96.00;;;;;;4995538;28;20128;-84
2021/07/04 03:05:50;;;;;;;9.60;4.40;;;19.60;95.90;;;;;;4995483;28;20050;-84
2021/07/04 03:08:15;;;;;;;10.10;5.03;;;19.60;96.00;;;;;;4995323;28;20106;-83
2021/07/04 03:10:41;;;;;;;9.10;4.32;;;19.50;95.90;;;;;;4995213;28;20097;-84
2021/07/04 03:13:07;;;;;;;8.75;4.80;;;19.50;95.90;;;;;;4995166;28;20022;-83
2021/07/04 03:15:32;;;;;;;9.55;4.75;;;19.50;95.90;;;;;;4995046;28;20462;-83
2021/07/04 03:17:58;;;;;;;8.93;4.47;;;19.50;95.90;;;;;;4995157;28;20058;-83
2021/07/04 03:20:24;;;;;;;8.77;4.70;;;19.50;96.00;;;;;;4995073;28;20077;-83
2021/07/04 03:22:50;;;;;;;9.13;4.57;;;19.50;96.00;;;;;;4995009;28;20026;-83
2021/07/04 03:25:16;;;;;;;9.65;4.82;;;19.50;96.30;;;;;;4977582;28;20489;-83
2021/07/04 03:27:42;;;;;;;8.32;4.32;;;19.50;96.00;;;;;;5008405;28;20041;-83
2021/07/04 03:30:15;;;;;;;9.95;4.85;;;19.50;96.00;;;;;;5014596;28;20402;-83
2021/07/04 03:32:41;;;;;;;8.02;4.18;;;19.50;95.90;;;;;;5014650;28;20026;-83
2021/07/04 03:35:09;;;;;;;10.07;4.78;;;19.50;96.00;;;;;;5005343;28;20076;-83
2021/07/04 03:37:36;;;;;;;10.85;4.35;;;19.50;96.00;;;;;;4994934;28;20022;-83
2021/07/04 03:40:05;;;;;;;8.95;4.63;;;19.40;95.90;;;;;;4993829;28;20121;-84
2021/07/04 03:42:30;;;;;;;8.95;5.10;;;19.40;96.00;;;;;;4993315;28;20036;-83
2021/07/04 03:44:56;;;;;;;9.32;5.22;;;19.40;96.00;;;;;;4977587;28;20387;-83
2021/07/04 03:47:25;;;;;;;8.68;4.78;;;19.40;96.00;;;;;;4976819;28;20031;-83
2021/07/04 03:49:51;;;;;;;9.63;4.90;;;19.50;96.10;;;;;;4993325;28;20026;-83
2021/07/04 03:52:17;;;;;;;9.13;4.50;;;19.50;96.10;;;;;;4993250;28;20118;-83
2021/07/04 03:54:42;;;;;;;9.65;5.07;;;19.40;96.00;;;;;;4993328;28;20105;-83
2021/07/04 03:57:23;;;;;;;9.30;4.50;;;19.30;96.00;;;;;;4994857;28;20038;-83
2021/07/04 03:59:54;;;;;;;9.65;4.78;;;19.40;96.10;;;;;;4994345;28;20062;-83
2021/07/04 04:02:21;;;;;;;15.13;5.25;;;19.40;96.00;;;;;;4993365;28;20121;-83
2021/07/04 04:04:46;;;;;;;9.75;5.40;;;19.40;96.10;;;;;;4977211;28;20518;-83
2021/07/04 04:07:12;;;;;;;9.30;4.90;;;19.40;96.10;;;;;;4994456;28;20062;-83
2021/07/04 04:09:38;;;;;;;9.48;5.22;;;19.40;96.00;;;;;;4994432;28;20026;-83
2021/07/04 04:12:04;;;;;;;10.23;6.25;;;19.40;96.30;;;;;;4994402;28;20042;-83
2021/07/04 04:14:30;;;;;;;10.05;5.13;;;19.40;96.10;;;;;;4992829;28;20040;-83
2021/07/04 04:16:56;;;;;;;11.85;5.45;;;19.40;96.10;;;;;;4977267;28;20027;-83
2021/07/04 04:19:22;;;;;;;10.02;5.28;;;19.50;96.20;;;;;;4994290;28;20029;-83
2021/07/04 04:21:47;;;;;;;10.00;5.10;;;19.40;96.20;;;;;;4994114;28;20038;-83
2021/07/04 04:24:13;;;;;;;9.02;4.82;;;19.50;96.10;;;;;;4994347;28;20375;-83
2021/07/04 04:26:39;;;;;;;10.63;5.10;;;19.40;96.00;;;;;;4999073;28;20046;-83
2021/07/04 04:29:05;;;;;;;10.00;5.15;;;19.50;96.20;;;;;;4996230;28;20443;-82
2021/07/04 04:31:31;;;;;;;9.88;5.22;;;19.30;96.10;;;;;;5013995;28;20018;-82
2021/07/04 04:33:56;;;;;;;12.05;5.20;;;19.50;96.10;;;;;;5013675;28;20030;-83
2021/07/04 04:36:22;;;;;;;9.88;5.20;;;19.50;96.20;;;;;;4988456;28;20462;-83
2021/07/04 04:38:47;;;;;;;9.90;5.28;;;19.50;96.20;;;;;;4993825;28;20040;-83
2021/07/04 04:41:13;;;;;;;11.48;4.88;;;19.60;96.30;;;;;;4993993;28;20166;-84
2021/07/04 04:43:40;;;;;;;9.32;5.10;;;19.60;96.20;;;;;;4992713;28;20035;-84
2021/07/04 04:46:08;;;;;;;10.93;5.40;;;19.60;96.20;;;;;;4977182;28;20058;-84
2021/07/04 04:48:34;;;;;;;9.90;4.63;;;19.60;96.30;;;;;;4992961;28;20096;-83
2021/07/04 04:51:00;;;;;;;10.32;5.22;;;19.70;96.20;;;;;;4992758;28;20466;-83
2021/07/04 04:53:25;;;;;;;9.23;4.78;;;19.70;96.20;;;;;;4976593;28;20022;-82
2021/07/04 04:55:51;;;;;;;8.60;4.50;;;19.70;96.30;;;;;;4994029;28;20558;-83
2021/07/04 04:58:16;;;;;;;9.35;5.00;;;19.70;96.30;;;;;;4992910;28;20030;-82
2021/07/04 05:00:42;;;;;;;8.75;4.70;;;19.80;96.40;;;;;;4997808;28;20031;-82
2021/07/04 05:03:07;;;;;;;9.20;4.13;;;19.80;96.40;;;;;;4980289;28;20027;-83
2021/07/04 05:05:34;;;;;;;10.40;5.65;;;19.90;96.30;;;;;;4997896;28;20042;-83
2021/07/04 05:08:00;;;;;;;11.65;6.22;;;20.00;96.40;;;;;;4997546;28;20080;-83
2021/07/04 05:10:26;;;;;;;10.73;5.28;;;20.00;96.30;;;;;;4996269;28;20125;-83
2021/07/04 05:12:52;;;;;;;8.95;4.53;;;19.90;96.40;;;;;;4997979;28;20038;-82
2021/07/04 05:15:18;;;;;;;9.55;4.70;;;20.00;96.30;;;;;;4997559;28;20030;-82
2021/07/04 05:17:44;;;;;;;10.30;5.18;;;20.10;96.40;;;;;;4995896;28;20027;-82
2021/07/04 05:20:10;;;;;;;9.07;4.70;;;20.10;96.30;;;;;;4995809;28;20414;-84
2021/07/04 05:22:36;;;;;;;9.43;4.95;;;20.20;96.50;;;;;;4979517;28;20486;-84
2021/07/04 05:25:03;;;;;;;9.18;4.55;;;20.20;96.50;;;;;;4995952;28;20544;-84
2021/07/04 05:27:29;;;;;;;9.40;5.03;;;20.30;96.30;;;;;;5008904;28;20053;-84
2021/07/04 05:29:58;;;;;;;9.52;5.10;;;20.40;96.40;;;;;;5016763;28;20092;-88
2021/07/04 05:32:24;;;;;;;9.07;4.80;;;20.40;96.30;;;;;;5016821;28;20025;-81
2021/07/04 05:34:49;;;;;;;10.05;5.10;;;20.40;96.30;;;;;;5009988;28;20030;-80
2021/07/04 05:37:19;;;;;;;8.80;4.80;;;20.50;96.40;;;;;;4995986;28;20045;-80
2021/07/04 05:39:44;;;;;;;10.27;5.05;;;20.50;96.40;;;;;;4997278;28;20050;-80
2021/07/04 05:42:12;;;;;;;11.38;6.30;;;20.50;96.20;;;;;;4979508;28;20073;-81
2021/07/04 05:44:38;;;;;;;10.65;6.00;;;20.60;96.30;;;;;;4995697;28;20437;-81
2021/07/04 05:47:04;;;;;;;10.68;5.72;;;20.70;96.30;;;;;;4996977;28;20035;-81
2021/07/04 05:49:30;;;;;;;10.43;5.40;;;20.60;96.30;;;;;;4996652;28;20026;-81
2021/07/04 05:51:55;;;;;;;11.93;5.00;;;20.70;96.20;;;;;;4996877;28;20062;-81
2021/07/04 05:54:21;;;;;;;11.13;5.05;;;20.70;96.10;;;;;;4995674;28;20030;-81
2021/07/04 05:56:47;;;;;;;9.77;5.40;;;20.80;96.40;;;;;;4996836;28;20382;-82
2021/07/04 05:59:12;;;;;;;10.13;4.88;;;20.90;96.40;;;;;;4979293;28;20034;-82
2021/07/04 06:01:38;;;;;;;10.32;5.50;;;20.90;96.50;;;;;;4995474;28;20045;-81
2021/07/04 06:04:04;;;;;;;9.32;5.28;;;21.10;96.40;;;;;;4996549;28;20066;-81
2021/07/04 06:06:30;;;;;;;11.43;5.07;;;21.20;96.40;;;;;;4995086;28;20168;-81
2021/07/04 06:08:56;;;;;;;10.18;5.20;;;21.20;96.40;;;;;;4996557;28;20448;-80
2021/07/04 06:11:22;;;;;;;10.18;5.35;;;21.40;96.40;;;;;;4994573;28;20169;-81
2021/07/04 06:13:47;;;;;;;11.63;4.70;;;21.40;96.10;;;;;;4996449;28;20018;-80
2021/07/04 06:16:13;;;;;;;10.18;5.55;;;21.40;96.00;;;;;;4996424;28;20042;-78
2021/07/04 06:18:38;;;;;;;10.90;5.30;;;21.40;96.20;;;;;;4996533;28;20448;-78
2021/07/04 06:21:04;;;;;;;9.05;4.40;;;21.40;95.90;;;;;;4994565;28;20042;-78
2021/07/04 06:23:30;;;;;;;8.32;4.35;;;21.50;96.10;;;;;;4996473;28;20033;-77
2021/07/04 06:25:55;;;;;;;10.70;4.57;;;21.60;96.40;;;;;;4996101;28;20030;-82
2021/07/04 06:28:21;;;;;;;9.82;4.88;;;21.70;96.50;;;;;;4995910;28;20074;-79
2021/07/04 06:30:47;;;;;;;9.90;4.50;;;21.80;96.50;;;;;;4995721;28;20113;-79
2021/07/04 06:33:12;;;;;;;9.90;4.40;;;22.00;96.40;;;;;;4996103;28;20030;-79
2021/07/04 06:35:39;;;;;;;11.13;4.68;;;22.10;96.40;;;;;;4995737;28;20057;-80
2021/07/04 06:38:04;;;;;;;8.30;4.47;;;22.10;96.20;;;;;;4994500;28;20029;-80
2021/07/04 06:40:30;;;;;;;9.93;5.05;;;22.20;96.30;;;;;;4995738;28;20043;-80
2021/07/04 06:42:56;;;;;;;8.98;4.78;;;22.30;96.40;;;;;;4995826;28;20022;-80
2021/07/04 06:45:21;;;;;;;9.10;4.80;;;22.40;96.30;;;;;;4995704;28;20117;-80
2021/07/04 06:47:49;;;;;;;8.70;4.53;;;22.60;96.50;;;;;;4996151;28;20031;-80
2021/07/04 06:50:17;;;;;;;10.45;5.07;;;22.70;96.30;;;;;;4996071;28;20033;-81
2021/07/04 06:52:44;;;;;;;9.23;4.60;;;22.80;96.40;;;;;;4994756;28;20027;-82
2021/07/04 06:55:10;;;;;;;9.13;4.07;;;23.00;96.20;;;;;;4995245;28;20168;-82
2021/07/04 06:57:36;;;;;;;10.60;4.43;;;23.00;96.10;;;;;;4995191;28;20149;-82
2021/07/04 07:00:11;;;;;;;8.63;4.32;;;23.20;96.10;;;;;;4978628;28;20478;-83
2021/07/04 07:02:37;;;;;;;8.38;4.25;;;23.20;96.00;;;;;;4979709;23;20184;-84
2021/07/04 07:05:05;;;;;;;8.95;4.53;;;23.30;95.90;;;;;;5141187;23;20091;-82
2021/07/04 07:07:44;;;;;;;9.20;4.60;;;23.20;95.50;;;;;;4958437;28;20042;-83
2021/07/04 07:10:12;;;;;;;8.73;4.45;;;23.30;96.00;;;;;;4958455;28;20031;-80
2021/07/04 07:12:39;;;;;;;11.80;4.60;;;23.50;96.30;;;;;;4975863;28;20026;-81
2021/07/04 07:15:11;;;;;;;8.85;4.32;;;23.60;96.50;;;;;;4975492;28;20466;-81
2021/07/04 07:17:37;;;;;;;9.88;5.05;;;23.80;96.40;;;;;;4976493;28;20031;-80
2021/07/04 07:20:07;;;;;;;9.07;5.00;;;24.00;96.20;;;;;;4967872;28;20035;-81
2021/07/04 11:11:44;;;;;;;7.07;3.35;;;24.30;93.00;;;;;;5106596;23;20529;-83
2021/07/04 11:14:10;;;;;;;8.95;3.85;;;24.20;94.10;;;;;;4975682;28;20050;-83
2021/07/04 11:16:36;;;;;;;7.47;3.47;;;24.30;94.40;;;;;;4958768;28;20469;-83
2021/07/04 11:19:09;;;;;;;8.00;3.30;;;24.50;94.80;;;;;;4975795;28;20121;-82
2021/07/04 11:22:00;;;;;;;8.15;3.75;;;24.60;94.50;;;;;;4975655;28;20108;-82
2021/07/04 11:24:29;;;;;;;5.90;2.95;;;24.70;94.80;;;;;;4975565;28;20378;-82
2021/07/04 11:27:24;;;;;;;6.82;3.30;;;25.00;95.10;;;;;;4942990;28;20027;-82
2021/07/04 11:30:09;;;;;;;;;;;25.20;95.00;;;;;;4959136;28;20031;-82
2021/07/04 11:32:34;;;;;;;7.33;3.50;;;25.20;94.50;;;;;;4975574;28;20019;-81
2021/07/04 11:35:00;;;;;;;6.50;2.83;;;25.30;95.10;;;;;;4957686;28;20060;-81
2021/07/04 11:37:44;;;;;;;8.60;3.60;;;25.50;95.20;;;;;;4975176;28;20027;-81
2021/07/04 11:40:10;;;;;;;11.63;4.28;;;25.80;95.40;;;;;;4974519;28;20062;-81
2021/07/04 11:42:42;;;;;;;13.15;5.80;;;26.10;96.30;;;;;;4958388;28;20065;-86
2021/07/04 11:46:11;;;;;;;7.03;3.38;;;27.00;99.00;;;;;;4975266;28;20029;-86
2021/07/04 11:49:03;;;;;;;8.25;3.75;;;29.20;99.90;;;;;;4947039;28;20062;-87
2021/07/04 11:51:48;;;;;;;4.22;2.53;;;30.20;98.10;;;;;;4958542;28;20081;-84
2021/07/04 11:54:19;;;;;;;6.13;2.78;;;30.70;97.20;;;;;;4975404;28;20352;-84
2021/07/04 11:56:54;;;;;;;4.97;2.60;;;31.30;96.40;;;;;;4974869;28;20023;-84
2021/07/04 11:59:28;;;;;;;4.88;2.42;;;31.30;94.80;;;;;;4975094;28;20073;-84
2021/07/04 12:02:01;;;;;;;3.95;2.38;;;31.20;94.20;;;;;;4973780;28;20046;-85
2021/07/04 12:04:37;;;;;;;6.03;2.60;;;31.10;94.40;;;;;;4970598;28;20033;-84
2021/07/04 12:07:10;;;;;;;4.40;2.53;;;31.10;94.80;;;;;;4977694;28;20479;-85
2021/07/04 12:09:46;;;;;;;6.95;3.00;;;31.10;94.10;;;;;;4938267;29;20102;-84
2021/07/04 12:12:16;;;;;;;4.57;2.40;;;31.00;93.90;;;;;;4956779;29;20091;-84
2021/07/04 12:14:42;;;;;;;4.95;2.25;;;30.90;93.80;;;;;;4939509;29;20031;-84
2021/07/04 12:17:30;;;;;;;7.55;2.60;;;30.90;94.00;;;;;;4939693;29;20058;-84
2021/07/04 12:20:05;;;;;;;4.53;2.13;;;30.80;93.60;;;;;;4956027;29;20127;-84
2021/07/04 12:22:36;;;;;;;7.15;3.35;;;30.80;93.80;;;;;;4939780;29;20114;-85
2021/07/04 12:25:09;;;;;;;4.30;2.40;;;30.90;94.50;;;;;;4956895;29;20386;-85
2021/07/04 12:27:56;;;;;;;8.77;4.47;;;31.10;94.40;;;;;;4956967;29;20110;-85
2021/07/04 12:30:27;;;;;;;4.93;2.70;;;31.40;95.50;;;;;;4938899;29;20034;-84
2021/07/04 12:33:06;;;;;;;5.55;2.60;;;33.00;98.50;;;;;;4940889;28;20057;-84
2021/07/04 12:35:32;;;;;;;5.32;2.50;;;34.10;97.40;;;;;;4955064;28;20054;-84
2021/07/04 12:38:09;;;;;;;3.95;2.30;;;34.90;96.20;;;;;;4973316;28;20054;-84
2021/07/04 12:40:54;;;;;;;4.97;2.50;;;35.30;95.30;;;;;;4974565;28;20031;-85
2021/07/04 12:43:38;;;;;;;4.55;2.40;;;36.20;96.30;;;;;;4974357;28;20118;-83
2021/07/04 12:46:15;;;;;;;6.32;2.60;;;36.70;94.80;;;;;;4974634;28;20042;-84
2021/07/04 12:48:46;;;;;;;2.90;2.20;;;37.30;93.60;;;;;;4974724;28;20046;-85
2021/07/04 12:51:17;;;;;;;4.70;2.40;;;37.30;91.80;;;;;;4974804;28;20023;-83
2021/07/04 12:53:46;;;;;;;4.68;2.60;;;37.00;91.10;;;;;;4972874;28;20023;-83
2021/07/04 12:56:43;;;;;;;3.58;2.40;;;36.80;91.00;;;;;;4974590;28;20073;-83
2021/07/04 12:59:11;;;;;;;4.93;2.80;;;36.80;93.10;;;;;;4951179;28;20045;-84
2021/07/04 13:01:43;;;;;;;3.88;2.22;;;37.50;94.70;;;;;;4976347;28;20093;-84
2021/07/04 13:04:14;;;;;;;3.03;2.28;;;38.40;94.10;;;;;;4975728;28;20466;-83
2021/07/04 13:06:57;;;;;;;3.70;2.40;;;39.50;94.50;;;;;;4975480;28;20027;-82
2021/07/04 13:09:44;;;;;;;2.92;2.10;;;40.70;94.50;;;;;;4975315;28;20493;-83
2021/07/04 13:12:21;;;;;;;2.47;2.10;;;42.10;94.80;;;;;;4937106;29;20039;-84
2021/07/04 13:14:54;;;;;;;2.72;2.10;;;43.40;93.70;;;;;;4936401;29;20036;-86
2021/07/04 13:17:47;;;;;;;3.10;2.15;;;44.10;90.90;;;;;;4940907;29;20027;-90
2021/07/04 13:20:15;;;;;;;3.10;2.00;;;44.10;88.80;;;;;;4938397;29;20539;-93
2021/07/04 13:23:00;;;;;;;1.88;1.77;;;43.40;80.40;;;;;;4965829;28;20032;-92
2021/07/04 13:25:55;;;;;;;4.47;1.95;;;42.20;79.50;;;;;;4979846;28;20114;-94
2021/07/04 13:28:39;;;;;;;4.72;2.03;;;40.60;78.40;;;;;;4974764;28;20027;-91
2021/07/04 13:31:14;;;;;;;4.20;2.13;;;38.90;79.50;;;;;;4969258;28;20038;-93
2021/07/04 13:33:43;;;;;;;3.70;2.28;;;37.90;80.20;;;;;;4961454;29;20023;-94
2021/07/04 13:36:35;;;;;;;3.75;2.20;;;36.80;80.50;;;;;;4944713;28;20439;-87
2021/07/04 13:39:43;;;;;;;5.45;2.40;;;35.80;81.30;;;;;;4950902;29;20042;-94
2021/07/04 13:42:30;;;;;;;;;;;;;;;;;;;;;
2021/07/04 13:44:57;;;;;;;4.68;2.60;;;35.40;88.10;;;;;;4959517;29;20475;-92
2021/07/04 13:47:50;;;;;;;4.28;2.60;;;35.40;88.00;;;;;;4957924;29;20019;-91
2021/07/04 13:53:38;;;;;;;3.35;2.22;;;35.60;93.50;;;;;;4956662;29;19914;-89
2021/07/04 13:56:18;;;;;;;3.95;2.20;;;36.70;92.20;;;;;;4957320;29;20039;-92
2021/07/04 13:59:01;;;;;;;5.18;2.42;;;36.60;89.90;;;;;;4939010;29;20200;-91
2021/07/04 14:01:50;;;;;;;4.13;2.30;;;36.40;90.10;;;;;;4957661;29;20035;-93
2021/07/04 14:07:10;;;;;;;4.63;2.33;;;36.80;90.80;;;;;;4925700;29;20423;-94
2021/07/04 14:09:38;;;;;;;3.92;2.28;;;36.70;89.70;;;;;;4948961;29;20027;-93
2021/07/04 14:12:05;;;;;;;4.38;2.30;;;36.30;87.30;;;;;;4927099;29;20095;-94
2021/07/04 14:14:31;;;;;;;4.47;2.30;;;35.80;88.60;;;;;;4915949;29;20035;-94
2021/07/04 14:16:58;;;;;;;4.47;2.38;;;35.30;88.30;;;;;;4922800;29;20032;-90
2021/07/04 14:19:23;;;;;;;4.13;2.20;;;35.00;90.10;;;;;;4939501;29;20145;-92
2021/07/04 14:21:49;;;;;;;5.47;2.40;;;34.80;90.70;;;;;;4927329;29;20072;-92
2021/07/04 14:24:27;;;;;;;3.03;2.10;;;34.60;90.40;;;;;;4922435;29;20034;-91
2021/07/04 14:27:21;;;;;;;3.55;2.20;;;34.50;91.00;;;;;;4921698;29;20028;-87
2021/07/04 14:29:47;;;;;;;;;;;34.40;92.00;;;;;;4921765;29;20167;-91
2021/07/04 14:32:12;;;;;;;3.40;2.10;;;34.50;93.00;;;;;;4936228;29;20369;-84
2021/07/04 14:34:39;;;;;;;3.63;2.10;;;34.50;90.90;;;;;;4926017;29;20031;-87
2021/07/04 14:37:20;;;;;;;3.35;2.13;;;34.40;90.50;;;;;;4940283;29;20043;-89
2021/07/04 14:40:05;;;;;;;;;;;;;;;;;;;;;
2021/07/04 14:43:40;;;;;;;4.22;2.10;;;34.10;90.50;;;;;;4955019;29;20047;-88
2021/07/04 14:46:06;;;;;;;2.95;1.90;;;33.90;90.30;;;;;;4859795;29;20040;-85
2021/07/04 14:48:59;;;;;;;2.65;1.85;;;33.40;90.50;;;;;;4954949;29;20038;-85
2021/07/04 14:51:26;;;;;;;3.40;1.95;;;33.30;90.80;;;;;;4939718;29;20487;-82
2021/07/04 14:53:58;;;;;;;3.67;2.17;;;33.40;91.60;;;;;;4940357;29;20126;-82
2021/07/04 14:56:44;;;;;;;4.57;1.95;;;33.40;91.40;;;;;;4964151;28;20031;-85
2021/07/04 14:59:24;;;;;;;2.78;1.90;;;33.50;91.60;;;;;;4938294;29;20027;-86
2021/07/04 15:02:19;;;;;;;4.53;2.10;;;33.50;90.90;;;;;;4930522;29;20039;-85
2021/07/04 15:05:03;;;;;;;2.40;1.80;;;33.80;92.30;;;;;;4956474;29;20042;-86
2021/07/04 15:11:51;;;;;;;;;;;;;;;;;;;;;
2021/07/04 15:14:27;;;;;;;3.78;2.10;;;34.60;91.70;;;;;;4881429;29;20039;-84
2021/07/04 15:17:10;;;;;;;3.60;1.90;;;34.60;91.20;;;;;;4939180;29;20028;-84
2021/07/04 15:19:36;;;;;;;3.17;2.07;;;35.10;92.60;;;;;;4957104;29;20382;-84
2021/07/04 15:22:37;;;;;;;4.47;2.00;;;35.60;92.50;;;;;;4939595;29;20122;-84
2021/07/04 15:25:39;;;;;;;2.72;2.00;;;36.20;93.30;;;;;;4939435;29;20027;-84
2021/07/04 15:28:23;;;;;;;2.67;2.00;;;36.70;91.20;;;;;;4956744;29;20047;-86
2021/07/04 15:31:27;;;;;;;3.17;2.00;;;36.40;87.60;;;;;;4952425;29;20066;-86
2021/07/04 15:33:59;;;;;;;3.25;2.10;;;36.10;88.80;;;;;;4878379;29;20044;-86
2021/07/04 15:36:51;;;;;;;3.30;2.10;;;35.70;89.00;;;;;;4892337;29;20028;-85
2021/07/04 15:39:20;;;;;;;2.45;2.00;;;35.70;88.70;;;;;;4896872;29;20048;-85
2021/07/04 15:41:54;;;;;;;2.83;1.90;;;35.40;88.20;;;;;;4889631;29;20433;-85
2021/07/04 15:47:30;;;;;;;2.80;1.90;;;34.90;90.50;;;;;;4956189;29;19907;-84
2021/07/04 15:49:59;;;;;;;3.30;2.15;;;34.80;89.30;;;;;;4938743;29;20467;-83
2021/07/04 15:52:27;;;;;;;6.35;2.85;;;34.40;87.80;;;;;;4938834;29;20519;-83
2021/07/04 15:54:57;;;;;;;3.65;2.20;;;34.20;88.80;;;;;;4938735;29;20051;-85
2021/07/04 15:57:25;;;;;;;3.65;2.13;;;34.00;89.80;;;;;;4938890;29;20027;-85
2021/07/04 15:59:55;;;;;;;3.03;2.10;;;34.10;90.90;;;;;;4956049;29;20038;-87
2021/07/04 16:02:31;;;;;;;2.95;2.10;;;34.40;91.40;;;;;;4938703;29;20035;-85
2021/07/04 16:05:40;;;;;;;3.88;2.00;;;34.70;90.60;;;;;;4955846;29;20464;-89
2021/07/04 16:12:09;;;;;;;2.30;1.90;;;34.30;85.90;;;;;;4967884;28;20174;-89
2021/07/04 16:14:51;;;;;;;3.33;2.08;;;33.50;85.90;;;;;;4964071;28;20047;-85
2021/07/04 16:17:32;;;;;;;6.55;3.33;;;32.70;85.00;;;;;;4957606;28;20030;-83
2021/07/04 16:20:21;;;;;;;4.70;2.30;;;32.10;85.70;;;;;;4956003;28;20042;-83
2021/07/04 16:22:49;;;;;;;3.42;2.30;;;31.50;86.30;;;;;;4974937;28;20090;-82
2021/07/04 16:25:20;;;;;;;5.30;2.88;;;31.10;88.50;;;;;;4974988;28;20019;-80
2021/07/04 16:27:47;;;;;;;5.38;2.70;;;30.80;89.10;;;;;;4958357;28;20381;-82
2021/07/04 16:34:25;;;;;;;4.97;2.58;;;30.40;90.00;;;;;;4865617;29;20092;-84
2021/07/04 16:37:09;;;;;;;4.72;2.40;;;30.10;90.00;;;;;;4852160;29;20041;-84
2021/07/04 16:39:37;;;;;;;4.78;2.40;;;30.00;90.20;;;;;;4882275;29;20092;-84
2021/07/04 16:42:35;;;;;;;5.63;2.50;;;29.80;90.30;;;;;;4897491;29;20169;-84
2021/07/04 16:45:15;;;;;;;4.57;2.67;;;29.50;88.90;;;;;;4881955;29;20140;-85
2021/07/04 16:48:07;;;;;;;2.90;1.65;;;29.10;89.30;;;;;;4883481;29;20033;-87
2021/07/04 16:50:39;;;;;;;4.03;1.95;;;28.40;84.20;;;;;;4881532;29;20121;-84
2021/07/04 16:53:13;;;;;;;3.78;2.00;;;27.30;83.60;;;;;;4896609;29;20088;-86
2021/07/04 16:55:40;;;;;;;2.38;1.70;;;26.30;84.40;;;;;;4917779;29;20040;-91
2021/07/04 16:58:06;;;;;;;2.72;1.80;;;25.60;86.30;;;;;;4924867;29;20068;-89
2021/07/04 17:00:39;;;;;;;4.28;1.88;;;25.20;87.10;;;;;;4924766;29;20570;-89
2021/07/04 17:03:07;;;;;;;1.48;1.38;;;24.90;88.60;;;;;;4924513;29;20032;-89
2021/07/04 17:05:49;;;;;;;;;;;;;;;;;;;;;
2021/07/04 17:08:55;;;;;;;;;;;;;;;;;;;;;
2021/07/04 17:55:00;;;;;;;5.00;1.73;;;20.00;94.30;;;;;;4997348;28;20416;-86
2021/07/04 17:58:29;;;;;;;;;;;;;;;;;;;;;
2021/07/04 18:01:21;;;;;;;7.10;2.20;;;19.60;94.80;;;;;;4922912;28;20070;-86
2021/07/04 18:03:55;;;;;;;4.65;2.20;;;19.30;95.00;;;;;;4978898;28;20038;-86
2021/07/04 18:06:31;;;;;;;4.88;2.00;;;19.20;95.40;;;;;;4978166;28;20153;-84
2021/07/04 18:09:01;;;;;;;4.35;2.30;;;19.10;95.80;;;;;;4963567;28;20508;-85
2021/07/04 18:11:36;;;;;;;5.57;2.25;;;19.10;96.00;;;;;;4980181;28;20030;-85